createdAt,value
2018-09-30T00:02:26.490Z,2.33
2018-09-30T00:07:30.759Z,2.33
2018-09-30T00:12:34.961Z,2.63
2018-09-30T00:17:39.143Z,2.53
2018-09-30T00:22:43.505Z,2.37
2018-09-30T00:27:47.776Z,2.50
2018-09-30T00:32:51.976Z,2.07
2018-09-30T00:37:56.207Z,2.23
2018-09-30T00:43:00.514Z,1.67
2018-09-30T00:48:04.810Z,1.80
2018-09-30T00:53:08.785Z,1.70
2018-09-30T00:58:12.917Z,1.70
2018-09-30T01:03:17.462Z,1.80
2018-09-30T01:08:21.603Z,1.87
2018-09-30T01:13:25.979Z,1.47
2018-09-30T01:18:30.160Z,1.40
2018-09-30T01:23:34.776Z,1.70
2018-09-30T01:28:39.032Z,1.60
2018-09-30T01:33:43.364Z,1.30
2018-09-30T01:38:47.550Z,1.50
2018-09-30T01:43:51.891Z,1.20
2018-09-30T01:48:56.082Z,1.40
2018-09-30T01:54:00.249Z,1.67
2018-09-30T01:59:04.448Z,1.67
2018-09-30T02:04:08.552Z,1.60
2018-09-30T02:09:12.710Z,1.37
2018-09-30T02:14:16.912Z,1.40
2018-09-30T02:19:21.187Z,1.10
2018-09-30T02:24:25.462Z,1.50
2018-09-30T02:29:29.660Z,1.17
2018-09-30T02:34:33.846Z,1.30
2018-09-30T02:39:38.064Z,1.33
2018-09-30T02:44:42.681Z,1.43
2018-09-30T02:49:46.876Z,1.63
2018-09-30T02:54:51.165Z,1.30
2018-09-30T02:59:55.437Z,1.40
2018-09-30T03:04:59.616Z,1.50
2018-09-30T03:10:03.863Z,1.70
2018-09-30T03:15:07.998Z,1.20
2018-09-30T03:20:12.181Z,1.40
2018-09-30T03:25:16.719Z,1.40
2018-09-30T03:30:20.891Z,1.50
2018-09-30T03:35:25.079Z,1.10
2018-09-30T03:40:29.401Z,1.10
2018-09-30T03:45:33.603Z,1.00
2018-09-30T03:50:37.824Z,1.00
2018-09-30T03:55:42.002Z,1.13
2018-09-30T04:00:46.297Z,1.00
2018-09-30T04:05:50.479Z,0.83
2018-09-30T04:10:54.697Z,1.00
2018-09-30T04:15:59.117Z,1.10
2018-09-30T04:21:03.226Z,0.73
2018-09-30T04:26:07.249Z,1.03
2018-09-30T04:31:11.460Z,1.10
2018-09-30T04:36:15.627Z,1.17
2018-09-30T04:41:20.189Z,0.97
2018-09-30T04:46:24.455Z,1.10
2018-09-30T04:51:28.876Z,1.10
2018-09-30T04:56:33.569Z,0.80
2018-09-30T05:01:37.941Z,1.00
2018-09-30T05:06:42.271Z,1.20
2018-09-30T05:11:46.599Z,1.17
2018-09-30T05:16:50.977Z,1.20
2018-09-30T05:21:55.282Z,0.97
2018-09-30T05:26:59.473Z,1.20
2018-09-30T05:32:03.722Z,1.20
2018-09-30T05:37:07.912Z,1.23
2018-09-30T05:42:12.315Z,1.10
2018-09-30T05:47:16.490Z,1.10
2018-09-30T05:52:20.874Z,1.20
2018-09-30T05:57:25.065Z,1.13
2018-09-30T06:02:29.551Z,0.93
2018-09-30T06:07:33.922Z,1.20
2018-09-30T06:12:38.256Z,0.90
2018-09-30T06:17:42.710Z,0.90
2018-09-30T06:22:46.938Z,1.50
2018-09-30T06:27:51.325Z,1.30
2018-09-30T06:32:55.521Z,1.30
2018-09-30T06:37:59.696Z,1.10
2018-09-30T06:43:04.027Z,1.57
2018-09-30T06:48:08.241Z,1.47
2018-09-30T06:53:12.552Z,0.93
2018-09-30T06:58:16.757Z,1.47
2018-09-30T07:03:21.048Z,1.00
2018-09-30T07:08:25.350Z,1.10
2018-09-30T07:13:29.492Z,1.10
2018-09-30T07:18:33.814Z,1.30
2018-09-30T07:23:38.116Z,1.17
2018-09-30T07:28:42.466Z,1.07
2018-09-30T07:33:47.011Z,1.40
2018-09-30T07:38:51.161Z,1.63
2018-09-30T07:43:55.509Z,1.47
2018-09-30T07:48:59.693Z,1.10
2018-09-30T07:54:03.944Z,1.00
2018-09-30T07:59:08.162Z,1.43
2018-09-30T08:04:12.318Z,1.10
2018-09-30T08:09:16.518Z,1.00
2018-09-30T08:14:20.793Z,1.27
2018-09-30T08:19:25.322Z,1.00
2018-09-30T08:24:29.717Z,1.13
2018-09-30T08:29:34.009Z,1.13
2018-09-30T08:34:38.336Z,1.20
2018-09-30T08:39:42.614Z,1.17
2018-09-30T08:44:46.887Z,1.30
2018-09-30T08:49:51.068Z,1.40
2018-09-30T08:54:56.812Z,1.77
2018-09-30T09:00:00.986Z,1.33
2018-09-30T09:05:06.086Z,1.17
2018-09-30T09:10:10.211Z,1.27
2018-09-30T09:15:14.504Z,1.20
2018-09-30T09:20:19.991Z,1.27
2018-09-30T09:25:24.613Z,0.90
2018-09-30T09:30:29.155Z,0.80
2018-09-30T09:35:33.970Z,1.33
2018-09-30T09:40:38.172Z,1.10
2018-09-30T09:45:42.726Z,1.03
2018-09-30T09:50:46.915Z,0.90
2018-09-30T09:55:51.373Z,0.93
2018-09-30T10:00:55.865Z,0.97
2018-09-30T10:06:00.238Z,1.00
2018-09-30T10:11:04.658Z,1.00
2018-09-30T10:16:08.978Z,1.27
2018-09-30T10:21:13.351Z,0.90
2018-09-30T10:26:17.673Z,1.00
2018-09-30T10:31:24.630Z,1.13
2018-09-30T10:36:29.840Z,1.00
2018-09-30T10:41:34.062Z,1.10
2018-09-30T10:46:38.499Z,0.90
2018-09-30T10:51:42.795Z,0.93
2018-09-30T10:56:47.273Z,1.17
2018-09-30T11:01:51.628Z,0.90
2018-09-30T11:06:55.939Z,1.00
2018-09-30T11:12:00.116Z,1.00
2018-09-30T11:17:05.522Z,1.27
2018-09-30T11:22:09.702Z,1.40
2018-09-30T11:27:13.994Z,1.10
2018-09-30T11:32:18.349Z,1.10
2018-09-30T11:37:22.730Z,1.20
2018-09-30T11:42:26.891Z,1.67
2018-09-30T11:47:31.199Z,1.37
2018-09-30T11:52:35.588Z,1.20
2018-09-30T11:57:39.896Z,1.20
2018-09-30T12:02:44.090Z,1.43
2018-09-30T12:07:48.282Z,1.40
2018-09-30T12:12:52.476Z,1.07
2018-09-30T12:17:56.813Z,1.17
2018-09-30T12:23:01.231Z,1.10
2018-09-30T12:28:06.294Z,1.40
2018-09-30T12:33:10.512Z,1.00
2018-09-30T12:38:14.949Z,1.37
2018-09-30T12:43:19.168Z,1.07
2018-09-30T12:48:23.412Z,1.00
2018-09-30T12:53:27.797Z,1.07
2018-09-30T12:58:32.035Z,1.27
2018-09-30T13:03:36.345Z,1.40
2018-09-30T13:08:40.701Z,1.00
2018-09-30T13:13:44.999Z,0.90
2018-09-30T13:18:49.326Z,1.20
2018-09-30T13:23:53.620Z,0.87
2018-09-30T13:28:57.927Z,1.23
2018-09-30T13:34:02.420Z,0.80
2018-09-30T13:39:09.095Z,0.97
2018-09-30T13:44:13.507Z,1.30
2018-09-30T13:49:17.806Z,1.23
2018-09-30T13:54:22.104Z,1.10
2018-09-30T13:59:26.640Z,1.20
2018-09-30T14:04:30.956Z,1.30
2018-09-30T14:09:35.229Z,1.03
2018-09-30T14:14:39.506Z,1.00
2018-09-30T14:19:43.722Z,0.87
2018-09-30T14:24:47.938Z,1.00
2018-09-30T14:29:53.587Z,1.00
2018-09-30T14:34:57.817Z,1.03
2018-09-30T14:40:02.188Z,1.30
2018-09-30T14:45:06.401Z,0.77
2018-09-30T14:50:10.423Z,1.40
2018-09-30T14:55:14.801Z,1.47
2018-09-30T15:00:18.998Z,2.40
2018-09-30T15:05:23.173Z,1.33
2018-09-30T15:10:27.491Z,1.23
2018-09-30T15:15:31.725Z,1.30
2018-09-30T15:20:35.994Z,1.37
2018-09-30T15:25:40.407Z,1.70
2018-09-30T15:30:44.617Z,1.50
2018-09-30T15:35:49.091Z,1.50
2018-09-30T15:40:53.537Z,1.30
2018-09-30T15:45:57.990Z,1.60
2018-09-30T15:51:02.323Z,1.57
2018-09-30T15:56:06.863Z,1.40
2018-09-30T16:01:11.165Z,1.70
2018-09-30T16:06:15.321Z,1.70
2018-09-30T16:11:19.592Z,1.60
2018-09-30T16:16:23.882Z,1.43
2018-09-30T16:21:28.129Z,1.50
2018-09-30T16:26:32.309Z,1.50
2018-09-30T16:31:36.661Z,1.23
2018-09-30T16:36:41.738Z,1.53
2018-09-30T16:41:46.385Z,1.80
2018-09-30T16:46:50.768Z,1.60
2018-09-30T16:51:55.073Z,1.70
2018-09-30T16:56:59.276Z,1.80
2018-09-30T17:02:03.701Z,2.07
2018-09-30T17:07:07.823Z,2.07
2018-09-30T17:12:12.246Z,2.30
2018-09-30T17:17:16.679Z,2.50
2018-09-30T17:22:20.929Z,2.50
2018-09-30T17:27:25.719Z,2.07
2018-09-30T17:32:30.298Z,2.33
2018-09-30T17:37:34.588Z,2.60
2018-09-30T17:42:39.005Z,2.87
2018-09-30T17:47:43.307Z,2.57
2018-09-30T17:52:47.552Z,2.40
2018-09-30T17:57:52.457Z,2.63
2018-09-30T18:02:56.840Z,2.80
2018-09-30T18:08:01.416Z,2.77
2018-09-30T18:13:09.714Z,2.57
2018-09-30T18:18:13.940Z,2.83
2018-09-30T18:23:19.234Z,6.97
2018-09-30T18:28:25.529Z,5.50
2018-09-30T18:33:29.838Z,4.47
2018-09-30T18:38:34.555Z,4.93
2018-09-30T18:43:39.788Z,4.10
2018-09-30T18:48:44.557Z,4.10
2018-09-30T19:03:32.687Z,5.40
2018-09-30T19:08:36.902Z,5.80
2018-09-30T19:13:42.458Z,3.87
2018-09-30T19:18:46.952Z,3.97
2018-09-30T19:23:51.336Z,3.23
2018-09-30T19:28:55.513Z,2.97
2018-09-30T19:34:00.206Z,3.03
2018-09-30T19:39:07.868Z,3.00
2018-09-30T19:44:12.082Z,2.50
2018-09-30T19:49:16.303Z,2.80
2018-09-30T19:54:20.402Z,2.63
2018-09-30T19:59:24.468Z,2.60
2018-09-30T20:04:28.577Z,2.87
2018-09-30T20:09:32.852Z,2.70
2018-09-30T20:14:37.135Z,2.70
2018-09-30T20:19:41.445Z,2.70
2018-09-30T20:24:45.732Z,2.23
2018-09-30T20:29:49.987Z,2.40
2018-09-30T20:34:54.412Z,2.60
2018-09-30T20:39:58.623Z,2.60
2018-09-30T20:45:02.844Z,2.90
2018-09-30T20:50:07.175Z,2.50
2018-09-30T20:55:12.620Z,3.27
2018-09-30T21:00:17.317Z,3.37
2018-09-30T21:05:38.195Z,2.20
2018-09-30T21:10:42.904Z,2.53
2018-09-30T21:15:47.481Z,2.50
2018-09-30T21:20:51.745Z,2.33
2018-09-30T21:25:58.296Z,2.00
2018-09-30T21:31:02.909Z,2.10
2018-09-30T21:36:08.464Z,2.13
2018-09-30T21:41:13.282Z,1.67
2018-09-30T21:46:17.522Z,1.50
2018-09-30T21:51:21.786Z,1.70
2018-09-30T21:56:26.061Z,1.70
2018-09-30T22:01:30.425Z,1.90
2018-09-30T22:06:34.649Z,2.63
2018-09-30T22:11:39.128Z,1.87
2018-09-30T22:16:43.746Z,2.07
2018-09-30T22:21:47.973Z,1.83
2018-09-30T22:26:52.206Z,2.47
2018-09-30T22:31:56.782Z,1.93
2018-09-30T22:37:02.035Z,2.30
2018-09-30T22:42:08.430Z,4.47
2018-09-30T22:47:13.102Z,3.43
2018-09-30T22:52:17.333Z,2.43
2018-09-30T22:57:21.604Z,2.00
2018-09-30T23:02:25.805Z,1.70
2018-09-30T23:07:30.130Z,1.90
2018-09-30T23:12:34.725Z,1.97
2018-09-30T23:17:38.944Z,1.70
2018-09-30T23:22:43.217Z,2.00
2018-09-30T23:27:47.820Z,2.07
2018-09-30T23:32:52.045Z,1.87
2018-09-30T23:37:56.181Z,1.77
2018-09-30T23:43:00.608Z,1.90
2018-09-30T23:48:04.824Z,2.17
2018-09-30T23:53:08.983Z,2.00
2018-09-30T23:58:15.040Z,2.00
